sensor_id;sensor_type;location;lat;lon;timestamp;temperature;humidity
17807;DHT22;9027;48.938;9.182;2023-04-03T00:00:10;6.50;99.90
17807;DHT22;9027;48.938;9.182;2023-04-03T00:01:42;6.40;99.90
17807;DHT22;9027;48.938;9.182;2023-04-03T00:03:15;6.40;99.90
17807;DHT22;9027;48.938;9.182;2023-04-03T00:04:47;6.40;99.90
17807;DHT22;9027;48.938;9.182;2023-04-03T00:06:19;6.40;99.90
17807;DHT22;9027;48.938;9.182;2023-04-03T00:07:50;6.50;99.90
17807;DHT22;9027;48.938;9.182;2023-04-03T00:09:22;6.50;99.90
17807;DHT22;9027;48.938;9.182;2023-04-03T00:10:53;6.50;99.90
17807;DHT22;9027;48.938;9.182;2023-04-03T00:12:25;6.60;99.90
17807;DHT22;9027;48.938;9.182;2023-04-03T00:13:57;6.60;99.90
17807;DHT22;9027;48.938;9.182;2023-04-03T00:15:29;6.60;99.90
17807;DHT22;9027;48.938;9.182;2023-04-03T00:17:01;6.60;99.90
17807;DHT22;9027;48.938;9.182;2023-04-03T00:18:34;6.60;99.90
17807;DHT22;9027;48.938;9.182;2023-04-03T00:20:07;6.50;99.90
17807;DHT22;9027;48.938;9.182;2023-04-03T00:21:40;6.50;99.90
17807;DHT22;9027;48.938;9.182;2023-04-03T00:23:12;6.50;99.90
17807;DHT22;9027;48.938;9.182;2023-04-03T00:24:43;6.50;99.90
17807;DHT22;9027;48.938;9.182;2023-04-03T00:26:14;6.50;99.90
17807;DHT22;9027;48.938;9.182;2023-04-03T00:27:47;6.60;99.90
17807;DHT22;9027;48.938;9.182;2023-04-03T00:29:19;6.50;99.90
17807;DHT22;9027;48.938;9.182;2023-04-03T00:30:51;6.50;99.90
17807;DHT22;9027;48.938;9.182;2023-04-03T00:32:22;6.50;99.90
17807;DHT22;9027;48.938;9.182;2023-04-03T00:33:55;6.60;99.90
17807;DHT22;9027;48.938;9.182;2023-04-03T00:35:28;6.50;99.90
17807;DHT22;9027;48.938;9.182;2023-04-03T00:36:59;6.50;99.90
17807;DHT22;9027;48.938;9.182;2023-04-03T00:38:31;6.40;99.90
17807;DHT22;9027;48.938;9.182;2023-04-03T00:40:03;6.40;99.90
17807;DHT22;9027;48.938;9.182;2023-04-03T00:41:35;6.50;99.90
17807;DHT22;9027;48.938;9.182;2023-04-03T00:43:12;6.50;99.90
17807;DHT22;9027;48.938;9.182;2023-04-03T00:45:28;6.40;99.90
17807;DHT22;9027;48.938;9.182;2023-04-03T00:47:01;6.50;99.90
17807;DHT22;9027;48.938;9.182;2023-04-03T00:48:36;6.40;99.90
17807;DHT22;9027;48.938;9.182;2023-04-03T00:50:10;6.40;99.90
17807;DHT22;9027;48.938;9.182;2023-04-03T00:51:41;6.40;99.90
17807;DHT22;9027;48.938;9.182;2023-04-03T00:53:19;6.50;99.90
17807;DHT22;9027;48.938;9.182;2023-04-03T00:54:56;6.50;99.90
17807;DHT22;9027;48.938;9.182;2023-04-03T00:56:28;6.40;99.90
17807;DHT22;9027;48.938;9.182;2023-04-03T00:58:01;6.30;99.90
17807;DHT22;9027;48.938;9.182;2023-04-03T00:59:35;6.20;99.90
17807;DHT22;9027;48.938;9.182;2023-04-03T01:01:14;6.20;99.90
17807;DHT22;9027;48.938;9.182;2023-04-03T01:02:47;6.20;99.90
17807;DHT22;9027;48.938;9.182;2023-04-03T01:04:27;6.20;99.90
17807;DHT22;9027;48.938;9.182;2023-04-03T01:06:01;6.10;99.90
17807;DHT22;9027;48.938;9.182;2023-04-03T01:07:33;6.10;99.90
17807;DHT22;9027;48.938;9.182;2023-04-03T01:09:05;6.00;99.90
17807;DHT22;9027;48.938;9.182;2023-04-03T01:10:37;6.00;99.90
17807;DHT22;9027;48.938;9.182;2023-04-03T01:12:15;5.90;99.90
17807;DHT22;9027;48.938;9.182;2023-04-03T01:13:48;5.90;99.90
17807;DHT22;9027;48.938;9.182;2023-04-03T01:15:22;5.80;99.90
17807;DHT22;9027;48.938;9.182;2023-04-03T01:16:54;5.80;99.90
17807;DHT22;9027;48.938;9.182;2023-04-03T01:18:26;5.70;99.90
17807;DHT22;9027;48.938;9.182;2023-04-03T01:22:13;5.60;99.90
17807;DHT22;9027;48.938;9.182;2023-04-03T01:23:54;5.70;99.90
17807;DHT22;9027;48.938;9.182;2023-04-03T01:25:27;5.60;99.90
17807;DHT22;9027;48.938;9.182;2023-04-03T01:26:59;5.50;99.90
17807;DHT22;9027;48.938;9.182;2023-04-03T01:28:34;5.50;99.90
17807;DHT22;9027;48.938;9.182;2023-04-03T01:30:07;5.40;99.90
17807;DHT22;9027;48.938;9.182;2023-04-03T01:31:49;5.50;99.90
17807;DHT22;9027;48.938;9.182;2023-04-03T01:33:21;5.40;99.90
17807;DHT22;9027;48.938;9.182;2023-04-03T01:34:53;5.40;99.90
17807;DHT22;9027;48.938;9.182;2023-04-03T01:36:27;5.40;99.90
17807;DHT22;9027;48.938;9.182;2023-04-03T01:37:59;5.40;99.90
17807;DHT22;9027;48.938;9.182;2023-04-03T01:39:31;5.30;99.90
17807;DHT22;9027;48.938;9.182;2023-04-03T01:41:04;5.20;99.90
17807;DHT22;9027;48.938;9.182;2023-04-03T01:42:35;5.30;99.90
17807;DHT22;9027;48.938;9.182;2023-04-03T01:44:06;5.30;99.90
17807;DHT22;9027;48.938;9.182;2023-04-03T01:45:38;5.30;99.90
17807;DHT22;9027;48.938;9.182;2023-04-03T01:47:12;5.30;99.90
17807;DHT22;9027;48.938;9.182;2023-04-03T01:48:45;5.20;99.90
17807;DHT22;9027;48.938;9.182;2023-04-03T01:50:17;5.20;99.90
17807;DHT22;9027;48.938;9.182;2023-04-03T01:51:49;5.30;99.90
17807;DHT22;9027;48.938;9.182;2023-04-03T01:53:21;5.30;99.90
17807;DHT22;9027;48.938;9.182;2023-04-03T01:54:53;5.40;99.90
17807;DHT22;9027;48.938;9.182;2023-04-03T01:56:25;5.40;99.90
17807;DHT22;9027;48.938;9.182;2023-04-03T01:57:57;5.50;99.90
17807;DHT22;9027;48.938;9.182;2023-04-03T01:59:29;5.50;99.90
17807;DHT22;9027;48.938;9.182;2023-04-03T02:01:01;5.50;99.90
17807;DHT22;9027;48.938;9.182;2023-04-03T02:02:34;5.40;99.90
17807;DHT22;9027;48.938;9.182;2023-04-03T02:04:06;5.40;99.90
17807;DHT22;9027;48.938;9.182;2023-04-03T02:05:39;5.40;99.90
17807;DHT22;9027;48.938;9.182;2023-04-03T02:07:11;5.50;99.90
17807;DHT22;9027;48.938;9.182;2023-04-03T02:08:42;5.40;99.90
17807;DHT22;9027;48.938;9.182;2023-04-03T02:10:14;5.40;99.90
17807;DHT22;9027;48.938;9.182;2023-04-03T02:11:46;5.30;99.90
17807;DHT22;9027;48.938;9.182;2023-04-03T02:13:18;5.40;99.90
17807;DHT22;9027;48.938;9.182;2023-04-03T02:14:51;5.40;99.90
17807;DHT22;9027;48.938;9.182;2023-04-03T02:16:21;5.40;99.90
17807;DHT22;9027;48.938;9.182;2023-04-03T02:17:55;5.40;99.90
17807;DHT22;9027;48.938;9.182;2023-04-03T02:19:27;5.30;99.90
17807;DHT22;9027;48.938;9.182;2023-04-03T02:20:59;5.20;99.90
17807;DHT22;9027;48.938;9.182;2023-04-03T02:22:31;5.10;99.90
17807;DHT22;9027;48.938;9.182;2023-04-03T02:24:03;5.10;99.90
17807;DHT22;9027;48.938;9.182;2023-04-03T02:25:35;5.00;99.90
17807;DHT22;9027;48.938;9.182;2023-04-03T02:27:08;5.00;99.90
17807;DHT22;9027;48.938;9.182;2023-04-03T02:28:40;5.00;99.90
17807;DHT22;9027;48.938;9.182;2023-04-03T02:30:12;4.90;99.90
17807;DHT22;9027;48.938;9.182;2023-04-03T02:31:45;5.00;99.90
17807;DHT22;9027;48.938;9.182;2023-04-03T02:33:17;5.00;99.90
17807;DHT22;9027;48.938;9.182;2023-04-03T02:34:49;5.00;99.90
17807;DHT22;9027;48.938;9.182;2023-04-03T02:36:21;4.90;99.90
17807;DHT22;9027;48.938;9.182;2023-04-03T02:37:58;4.90;99.90
17807;DHT22;9027;48.938;9.182;2023-04-03T02:39:30;5.00;99.90
17807;DHT22;9027;48.938;9.182;2023-04-03T02:41:04;5.00;99.90
17807;DHT22;9027;48.938;9.182;2023-04-03T02:42:37;5.00;99.90
17807;DHT22;9027;48.938;9.182;2023-04-03T02:44:10;5.00;99.90
17807;DHT22;9027;48.938;9.182;2023-04-03T02:45:42;5.00;99.90
17807;DHT22;9027;48.938;9.182;2023-04-03T02:47:15;5.00;99.90
17807;DHT22;9027;48.938;9.182;2023-04-03T02:48:48;5.00;99.90
17807;DHT22;9027;48.938;9.182;2023-04-03T02:50:19;5.00;99.90
17807;DHT22;9027;48.938;9.182;2023-04-03T02:51:51;5.00;99.90
17807;DHT22;9027;48.938;9.182;2023-04-03T02:53:22;5.00;99.90
17807;DHT22;9027;48.938;9.182;2023-04-03T02:54:54;5.00;99.90
17807;DHT22;9027;48.938;9.182;2023-04-03T02:56:27;5.00;99.90
17807;DHT22;9027;48.938;9.182;2023-04-03T02:57:59;5.10;99.90
17807;DHT22;9027;48.938;9.182;2023-04-03T02:59:30;5.10;99.90
17807;DHT22;9027;48.938;9.182;2023-04-03T03:01:02;5.20;99.90
17807;DHT22;9027;48.938;9.182;2023-04-03T03:02:33;5.20;99.90
17807;DHT22;9027;48.938;9.182;2023-04-03T03:04:06;5.30;99.90
17807;DHT22;9027;48.938;9.182;2023-04-03T03:05:38;5.30;99.90
17807;DHT22;9027;48.938;9.182;2023-04-03T03:07:10;5.40;99.90
17807;DHT22;9027;48.938;9.182;2023-04-03T03:08:42;5.40;99.90
17807;DHT22;9027;48.938;9.182;2023-04-03T03:10:15;5.40;99.90
17807;DHT22;9027;48.938;9.182;2023-04-03T03:11:47;5.30;99.90
17807;DHT22;9027;48.938;9.182;2023-04-03T03:13:18;5.20;99.90
17807;DHT22;9027;48.938;9.182;2023-04-03T03:14:51;5.20;99.90
17807;DHT22;9027;48.938;9.182;2023-04-03T03:16:23;5.20;99.90
17807;DHT22;9027;48.938;9.182;2023-04-03T03:17:54;5.20;99.90
17807;DHT22;9027;48.938;9.182;2023-04-03T03:19:27;5.20;99.90
17807;DHT22;9027;48.938;9.182;2023-04-03T03:21:00;5.20;99.90
17807;DHT22;9027;48.938;9.182;2023-04-03T03:22:33;5.10;99.90
17807;DHT22;9027;48.938;9.182;2023-04-03T03:24:06;5.10;99.90
17807;DHT22;9027;48.938;9.182;2023-04-03T03:25:38;5.10;99.90
17807;DHT22;9027;48.938;9.182;2023-04-03T03:27:09;5.10;99.90
17807;DHT22;9027;48.938;9.182;2023-04-03T03:28:42;5.10;99.90
17807;DHT22;9027;48.938;9.182;2023-04-03T03:30:16;5.10;99.90
17807;DHT22;9027;48.938;9.182;2023-04-03T03:31:48;5.10;99.90
17807;DHT22;9027;48.938;9.182;2023-04-03T03:33:20;5.10;99.90
17807;DHT22;9027;48.938;9.182;2023-04-03T03:34:52;5.10;99.90
17807;DHT22;9027;48.938;9.182;2023-04-03T03:36:24;5.10;99.90
17807;DHT22;9027;48.938;9.182;2023-04-03T03:37:56;5.10;99.90
17807;DHT22;9027;48.938;9.182;2023-04-03T03:39:28;5.00;99.90
17807;DHT22;9027;48.938;9.182;2023-04-03T03:41:01;5.10;99.90
17807;DHT22;9027;48.938;9.182;2023-04-03T03:42:34;5.10;99.90
17807;DHT22;9027;48.938;9.182;2023-04-03T03:44:06;5.10;99.90
17807;DHT22;9027;48.938;9.182;2023-04-03T03:45:39;5.10;99.90
17807;DHT22;9027;48.938;9.182;2023-04-03T03:47:10;5.10;99.90
17807;DHT22;9027;48.938;9.182;2023-04-03T03:48:42;5.10;99.90
17807;DHT22;9027;48.938;9.182;2023-04-03T03:50:16;5.20;99.90
17807;DHT22;9027;48.938;9.182;2023-04-03T03:51:48;5.10;99.90
17807;DHT22;9027;48.938;9.182;2023-04-03T03:53:20;5.10;99.90
17807;DHT22;9027;48.938;9.182;2023-04-03T03:54:56;5.10;99.90
17807;DHT22;9027;48.938;9.182;2023-04-03T03:56:28;5.10;99.90
17807;DHT22;9027;48.938;9.182;2023-04-03T03:58:00;5.20;99.90
17807;DHT22;9027;48.938;9.182;2023-04-03T03:59:35;5.20;99.90
17807;DHT22;9027;48.938;9.182;2023-04-03T04:01:07;5.20;99.90
17807;DHT22;9027;48.938;9.182;2023-04-03T04:02:45;5.20;99.90
17807;DHT22;9027;48.938;9.182;2023-04-03T04:04:21;5.20;99.90
17807;DHT22;9027;48.938;9.182;2023-04-03T04:05:55;5.30;99.90
17807;DHT22;9027;48.938;9.182;2023-04-03T04:07:27;5.40;99.90
17807;DHT22;9027;48.938;9.182;2023-04-03T04:09:01;5.50;99.90
17807;DHT22;9027;48.938;9.182;2023-04-03T04:10:34;5.50;99.90
17807;DHT22;9027;48.938;9.182;2023-04-03T04:12:07;5.50;99.90
17807;DHT22;9027;48.938;9.182;2023-04-03T04:13:39;5.60;99.90
17807;DHT22;9027;48.938;9.182;2023-04-03T04:15:12;5.60;99.90
17807;DHT22;9027;48.938;9.182;2023-04-03T04:16:44;5.60;99.90
17807;DHT22;9027;48.938;9.182;2023-04-03T04:18:20;5.70;99.90
17807;DHT22;9027;48.938;9.182;2023-04-03T04:19:53;5.70;99.90
17807;DHT22;9027;48.938;9.182;2023-04-03T04:21:27;5.70;99.90
17807;DHT22;9027;48.938;9.182;2023-04-03T04:22:59;5.70;99.90
17807;DHT22;9027;48.938;9.182;2023-04-03T04:24:31;5.60;99.90
17807;DHT22;9027;48.938;9.182;2023-04-03T04:26:03;5.50;99.90
17807;DHT22;9027;48.938;9.182;2023-04-03T04:27:39;5.60;99.90
17807;DHT22;9027;48.938;9.182;2023-04-03T04:29:11;5.60;99.90
17807;DHT22;9027;48.938;9.182;2023-04-03T04:30:44;5.50;99.90
17807;DHT22;9027;48.938;9.182;2023-04-03T04:32:17;5.50;99.90
17807;DHT22;9027;48.938;9.182;2023-04-03T04:33:49;5.50;99.90
17807;DHT22;9027;48.938;9.182;2023-04-03T04:35:22;5.50;99.90
17807;DHT22;9027;48.938;9.182;2023-04-03T04:36:57;5.50;99.90
17807;DHT22;9027;48.938;9.182;2023-04-03T04:38:30;5.60;99.90
17807;DHT22;9027;48.938;9.182;2023-04-03T04:40:02;5.60;99.90
17807;DHT22;9027;48.938;9.182;2023-04-03T04:41:35;5.60;99.90
17807;DHT22;9027;48.938;9.182;2023-04-03T04:43:08;5.60;99.90
17807;DHT22;9027;48.938;9.182;2023-04-03T04:44:41;5.60;99.90
17807;DHT22;9027;48.938;9.182;2023-04-03T04:46:13;5.60;99.90
17807;DHT22;9027;48.938;9.182;2023-04-03T04:47:50;5.60;99.90
17807;DHT22;9027;48.938;9.182;2023-04-03T04:49:23;5.60;99.90
17807;DHT22;9027;48.938;9.182;2023-04-03T04:50:55;5.50;99.90
17807;DHT22;9027;48.938;9.182;2023-04-03T04:52:28;5.60;99.90
17807;DHT22;9027;48.938;9.182;2023-04-03T04:54:00;5.50;99.90
17807;DHT22;9027;48.938;9.182;2023-04-03T04:55:32;5.50;99.90
17807;DHT22;9027;48.938;9.182;2023-04-03T04:57:05;5.30;99.90
17807;DHT22;9027;48.938;9.182;2023-04-03T04:58:37;5.20;99.90
17807;DHT22;9027;48.938;9.182;2023-04-03T05:00:10;5.20;99.90
17807;DHT22;9027;48.938;9.182;2023-04-03T05:01:42;5.10;99.90
17807;DHT22;9027;48.938;9.182;2023-04-03T05:03:19;5.10;99.90
17807;DHT22;9027;48.938;9.182;2023-04-03T05:04:51;5.20;99.90
17807;DHT22;9027;48.938;9.182;2023-04-03T05:06:27;5.10;99.90
17807;DHT22;9027;48.938;9.182;2023-04-03T05:08:02;5.00;99.90
17807;DHT22;9027;48.938;9.182;2023-04-03T05:09:34;5.00;99.90
17807;DHT22;9027;48.938;9.182;2023-04-03T05:11:07;4.90;99.90
17807;DHT22;9027;48.938;9.182;2023-04-03T05:12:39;4.90;99.90
17807;DHT22;9027;48.938;9.182;2023-04-03T05:14:12;4.90;99.90
17807;DHT22;9027;48.938;9.182;2023-04-03T05:15:44;4.90;99.90
17807;DHT22;9027;48.938;9.182;2023-04-03T05:17:16;5.00;99.90
17807;DHT22;9027;48.938;9.182;2023-04-03T05:18:53;5.00;99.90
17807;DHT22;9027;48.938;9.182;2023-04-03T05:20:27;5.10;99.90
17807;DHT22;9027;48.938;9.182;2023-04-03T05:21:59;5.10;99.90
17807;DHT22;9027;48.938;9.182;2023-04-03T05:23:34;5.10;99.90
17807;DHT22;9027;48.938;9.182;2023-04-03T05:25:08;5.10;99.90
17807;DHT22;9027;48.938;9.182;2023-04-03T05:26:41;5.10;99.90
17807;DHT22;9027;48.938;9.182;2023-04-03T05:28:13;5.10;99.90
17807;DHT22;9027;48.938;9.182;2023-04-03T05:29:45;5.10;99.90
17807;DHT22;9027;48.938;9.182;2023-04-03T05:31:22;5.10;99.90
17807;DHT22;9027;48.938;9.182;2023-04-03T05:32:54;5.10;99.90
17807;DHT22;9027;48.938;9.182;2023-04-03T05:34:36;5.10;99.90
17807;DHT22;9027;48.938;9.182;2023-04-03T05:36:09;5.30;99.90
17807;DHT22;9027;48.938;9.182;2023-04-03T05:37:47;5.30;99.90
17807;DHT22;9027;48.938;9.182;2023-04-03T05:39:21;5.40;99.90
17807;DHT22;9027;48.938;9.182;2023-04-03T05:40:55;5.50;99.90
17807;DHT22;9027;48.938;9.182;2023-04-03T05:42:26;5.50;99.90
17807;DHT22;9027;48.938;9.182;2023-04-03T05:43:58;5.60;99.90
17807;DHT22;9027;48.938;9.182;2023-04-03T05:45:30;5.40;99.90
17807;DHT22;9027;48.938;9.182;2023-04-03T05:47:03;5.30;99.90
17807;DHT22;9027;48.938;9.182;2023-04-03T05:48:35;5.10;99.90
17807;DHT22;9027;48.938;9.182;2023-04-03T05:50:08;5.10;99.90
17807;DHT22;9027;48.938;9.182;2023-04-03T05:51:41;5.20;99.90
17807;DHT22;9027;48.938;9.182;2023-04-03T05:53:22;5.10;99.90
17807;DHT22;9027;48.938;9.182;2023-04-03T05:54:58;5.10;99.90
17807;DHT22;9027;48.938;9.182;2023-04-03T05:56:32;5.10;99.90
17807;DHT22;9027;48.938;9.182;2023-04-03T05:58:04;5.10;99.90
17807;DHT22;9027;48.938;9.182;2023-04-03T05:59:37;5.00;99.90
17807;DHT22;9027;48.938;9.182;2023-04-03T06:01:09;5.00;99.90
17807;DHT22;9027;48.938;9.182;2023-04-03T06:02:41;5.00;99.90
17807;DHT22;9027;48.938;9.182;2023-04-03T06:04:17;4.90;99.90
17807;DHT22;9027;48.938;9.182;2023-04-03T06:05:49;5.00;99.90
17807;DHT22;9027;48.938;9.182;2023-04-03T06:07:23;4.90;99.90
17807;DHT22;9027;48.938;9.182;2023-04-03T06:08:57;5.00;99.90
17807;DHT22;9027;48.938;9.182;2023-04-03T06:10:30;5.00;99.90
17807;DHT22;9027;48.938;9.182;2023-04-03T06:12:02;5.00;99.90
17807;DHT22;9027;48.938;9.182;2023-04-03T06:13:35;5.10;99.90
17807;DHT22;9027;48.938;9.182;2023-04-03T06:15:08;5.00;99.90
17807;DHT22;9027;48.938;9.182;2023-04-03T06:16:40;5.10;99.90
17807;DHT22;9027;48.938;9.182;2023-04-03T06:18:12;5.10;99.90
17807;DHT22;9027;48.938;9.182;2023-04-03T06:19:45;5.00;99.90
17807;DHT22;9027;48.938;9.182;2023-04-03T06:21:17;5.10;99.90
17807;DHT22;9027;48.938;9.182;2023-04-03T06:22:49;5.00;99.90
17807;DHT22;9027;48.938;9.182;2023-04-03T06:24:21;5.00;99.90
17807;DHT22;9027;48.938;9.182;2023-04-03T06:25:56;5.10;99.90
17807;DHT22;9027;48.938;9.182;2023-04-03T06:27:28;5.10;99.90
17807;DHT22;9027;48.938;9.182;2023-04-03T06:29:00;5.10;99.90
17807;DHT22;9027;48.938;9.182;2023-04-03T06:30:32;5.20;99.90
17807;DHT22;9027;48.938;9.182;2023-04-03T06:32:04;5.30;99.90
17807;DHT22;9027;48.938;9.182;2023-04-03T06:33:36;5.30;99.90
17807;DHT22;9027;48.938;9.182;2023-04-03T06:35:09;5.30;99.90
17807;DHT22;9027;48.938;9.182;2023-04-03T06:36:41;5.30;99.90
17807;DHT22;9027;48.938;9.182;2023-04-03T06:38:13;5.30;99.90
17807;DHT22;9027;48.938;9.182;2023-04-03T06:39:45;5.30;99.90
17807;DHT22;9027;48.938;9.182;2023-04-03T06:41:19;5.40;99.90
17807;DHT22;9027;48.938;9.182;2023-04-03T06:42:51;5.40;99.90
17807;DHT22;9027;48.938;9.182;2023-04-03T06:44:24;5.50;99.90
17807;DHT22;9027;48.938;9.182;2023-04-03T06:45:56;5.40;99.90
17807;DHT22;9027;48.938;9.182;2023-04-03T06:47:28;5.50;99.90
17807;DHT22;9027;48.938;9.182;2023-04-03T06:49:00;5.50;99.90
17807;DHT22;9027;48.938;9.182;2023-04-03T06:50:32;5.50;99.90
17807;DHT22;9027;48.938;9.182;2023-04-03T06:52:04;5.50;99.90
17807;DHT22;9027;48.938;9.182;2023-04-03T06:53:36;5.50;99.90
17807;DHT22;9027;48.938;9.182;2023-04-03T06:55:09;5.50;99.90
17807;DHT22;9027;48.938;9.182;2023-04-03T06:56:43;5.50;99.90
17807;DHT22;9027;48.938;9.182;2023-04-03T06:58:15;5.50;99.90
17807;DHT22;9027;48.938;9.182;2023-04-03T06:59:47;5.60;99.90
17807;DHT22;9027;48.938;9.182;2023-04-03T07:01:20;5.70;99.90
17807;DHT22;9027;48.938;9.182;2023-04-03T07:02:53;5.80;99.90
17807;DHT22;9027;48.938;9.182;2023-04-03T07:04:27;5.80;99.90
17807;DHT22;9027;48.938;9.182;2023-04-03T07:05:59;5.80;99.90
17807;DHT22;9027;48.938;9.182;2023-04-03T07:07:31;5.80;99.90
17807;DHT22;9027;48.938;9.182;2023-04-03T07:09:04;5.80;99.90
17807;DHT22;9027;48.938;9.182;2023-04-03T07:10:38;5.80;99.90
17807;DHT22;9027;48.938;9.182;2023-04-03T07:12:11;5.90;99.90
17807;DHT22;9027;48.938;9.182;2023-04-03T07:13:44;5.90;99.90
17807;DHT22;9027;48.938;9.182;2023-04-03T07:15:16;6.00;99.90
17807;DHT22;9027;48.938;9.182;2023-04-03T07:16:48;6.20;99.90
17807;DHT22;9027;48.938;9.182;2023-04-03T07:18:20;6.40;99.90
17807;DHT22;9027;48.938;9.182;2023-04-03T07:19:52;6.50;99.90
17807;DHT22;9027;48.938;9.182;2023-04-03T07:21:25;6.60;99.90
17807;DHT22;9027;48.938;9.182;2023-04-03T07:22:57;6.60;99.90
17807;DHT22;9027;48.938;9.182;2023-04-03T07:24:29;6.60;99.90
17807;DHT22;9027;48.938;9.182;2023-04-03T07:26:01;6.80;99.90
17807;DHT22;9027;48.938;9.182;2023-04-03T07:27:35;7.00;99.90
17807;DHT22;9027;48.938;9.182;2023-04-03T07:29:07;7.40;99.90
17807;DHT22;9027;48.938;9.182;2023-04-03T07:30:43;7.70;99.90
17807;DHT22;9027;48.938;9.182;2023-04-03T07:32:16;7.80;99.90
17807;DHT22;9027;48.938;9.182;2023-04-03T07:33:49;8.00;99.90
17807;DHT22;9027;48.938;9.182;2023-04-03T07:35:21;8.00;99.90
17807;DHT22;9027;48.938;9.182;2023-04-03T07:36:53;8.00;99.90
17807;DHT22;9027;48.938;9.182;2023-04-03T07:38:25;8.10;99.90
17807;DHT22;9027;48.938;9.182;2023-04-03T07:39:57;8.20;99.90
17807;DHT22;9027;48.938;9.182;2023-04-03T07:41:29;8.10;99.90
17807;DHT22;9027;48.938;9.182;2023-04-03T07:43:06;8.00;99.90
17807;DHT22;9027;48.938;9.182;2023-04-03T07:44:38;8.00;99.90
17807;DHT22;9027;48.938;9.182;2023-04-03T07:46:10;8.00;99.90
17807;DHT22;9027;48.938;9.182;2023-04-03T07:47:42;8.00;99.90
17807;DHT22;9027;48.938;9.182;2023-04-03T07:49:14;8.00;99.90
17807;DHT22;9027;48.938;9.182;2023-04-03T07:50:48;8.00;99.90
17807;DHT22;9027;48.938;9.182;2023-04-03T07:52:21;7.90;99.90
17807;DHT22;9027;48.938;9.182;2023-04-03T07:53:52;7.70;99.90
17807;DHT22;9027;48.938;9.182;2023-04-03T07:55:25;7.60;99.90
17807;DHT22;9027;48.938;9.182;2023-04-03T07:56:57;7.60;99.90
17807;DHT22;9027;48.938;9.182;2023-04-03T07:58:30;7.90;99.90
17807;DHT22;9027;48.938;9.182;2023-04-03T08:00:03;8.20;99.90
17807;DHT22;9027;48.938;9.182;2023-04-03T08:01:42;8.50;99.90
17807;DHT22;9027;48.938;9.182;2023-04-03T08:03:15;8.70;99.90
17807;DHT22;9027;48.938;9.182;2023-04-03T08:04:48;8.70;99.90
17807;DHT22;9027;48.938;9.182;2023-04-03T08:06:20;8.80;99.90
17807;DHT22;9027;48.938;9.182;2023-04-03T08:07:52;8.70;99.90
17807;DHT22;9027;48.938;9.182;2023-04-03T08:09:24;8.90;99.90
17807;DHT22;9027;48.938;9.182;2023-04-03T08:10:58;9.00;99.90
17807;DHT22;9027;48.938;9.182;2023-04-03T08:12:31;9.30;99.90
17807;DHT22;9027;48.938;9.182;2023-04-03T08:14:04;9.10;99.90
17807;DHT22;9027;48.938;9.182;2023-04-03T08:15:36;8.80;99.90
17807;DHT22;9027;48.938;9.182;2023-04-03T08:17:09;8.60;99.90
17807;DHT22;9027;48.938;9.182;2023-04-03T08:18:42;8.40;99.90
17807;DHT22;9027;48.938;9.182;2023-04-03T08:20:14;8.30;99.90
17807;DHT22;9027;48.938;9.182;2023-04-03T08:21:46;8.20;99.90
17807;DHT22;9027;48.938;9.182;2023-04-03T08:23:18;8.20;99.90
17807;DHT22;9027;48.938;9.182;2023-04-03T08:24:50;8.30;99.90
17807;DHT22;9027;48.938;9.182;2023-04-03T08:26:22;8.30;99.90
17807;DHT22;9027;48.938;9.182;2023-04-03T08:27:54;8.50;99.90
17807;DHT22;9027;48.938;9.182;2023-04-03T08:29:27;8.80;99.90
17807;DHT22;9027;48.938;9.182;2023-04-03T08:31:03;8.90;99.90
17807;DHT22;9027;48.938;9.182;2023-04-03T08:32:36;9.10;99.90
17807;DHT22;9027;48.938;9.182;2023-04-03T08:34:08;9.20;99.90
17807;DHT22;9027;48.938;9.182;2023-04-03T08:35:41;9.20;99.90
17807;DHT22;9027;48.938;9.182;2023-04-03T08:37:13;9.10;99.90
17807;DHT22;9027;48.938;9.182;2023-04-03T08:38:47;9.10;99.90
17807;DHT22;9027;48.938;9.182;2023-04-03T08:40:19;9.20;99.90
17807;DHT22;9027;48.938;9.182;2023-04-03T08:41:52;9.00;99.90
17807;DHT22;9027;48.938;9.182;2023-04-03T08:43:30;8.90;99.90
17807;DHT22;9027;48.938;9.182;2023-04-03T08:45:12;9.00;99.90
17807;DHT22;9027;48.938;9.182;2023-04-03T08:46:58;9.10;99.90
17807;DHT22;9027;48.938;9.182;2023-04-03T08:48:33;8.90;99.90
17807;DHT22;9027;48.938;9.182;2023-04-03T08:50:11;8.90;99.90
17807;DHT22;9027;48.938;9.182;2023-04-03T08:51:46;8.70;99.90
17807;DHT22;9027;48.938;9.182;2023-04-03T08:53:23;8.60;99.90
17807;DHT22;9027;48.938;9.182;2023-04-03T08:54:59;8.60;99.90
17807;DHT22;9027;48.938;9.182;2023-04-03T08:56:33;8.90;99.90
17807;DHT22;9027;48.938;9.182;2023-04-03T08:58:09;9.00;99.90
17807;DHT22;9027;48.938;9.182;2023-04-03T08:59:42;8.90;99.90
17807;DHT22;9027;48.938;9.182;2023-04-03T09:01:20;9.00;99.90
17807;DHT22;9027;48.938;9.182;2023-04-03T09:02:54;9.20;99.90
17807;DHT22;9027;48.938;9.182;2023-04-03T09:04:28;9.40;99.90
17807;DHT22;9027;48.938;9.182;2023-04-03T09:06:05;9.40;99.90
17807;DHT22;9027;48.938;9.182;2023-04-03T09:07:43;9.30;99.90
17807;DHT22;9027;48.938;9.182;2023-04-03T09:09:25;9.40;99.90
17807;DHT22;9027;48.938;9.182;2023-04-03T09:11:12;9.60;99.90
17807;DHT22;9027;48.938;9.182;2023-04-03T09:12:49;9.80;99.90
17807;DHT22;9027;48.938;9.182;2023-04-03T09:14:26;9.70;99.90
17807;DHT22;9027;48.938;9.182;2023-04-03T09:16:11;9.40;99.90
17807;DHT22;9027;48.938;9.182;2023-04-03T09:17:57;9.30;99.90
17807;DHT22;9027;48.938;9.182;2023-04-03T09:19:37;9.30;99.90
17807;DHT22;9027;48.938;9.182;2023-04-03T09:21:16;9.30;99.90
17807;DHT22;9027;48.938;9.182;2023-04-03T09:22:50;9.10;99.90
17807;DHT22;9027;48.938;9.182;2023-04-03T09:24:24;8.90;99.90
17807;DHT22;9027;48.938;9.182;2023-04-03T09:26:01;9.00;99.90
17807;DHT22;9027;48.938;9.182;2023-04-03T09:27:35;9.00;99.90
17807;DHT22;9027;48.938;9.182;2023-04-03T09:29:08;9.00;99.90
17807;DHT22;9027;48.938;9.182;2023-04-03T09:30:43;9.00;99.90
17807;DHT22;9027;48.938;9.182;2023-04-03T09:32:21;9.10;99.90
17807;DHT22;9027;48.938;9.182;2023-04-03T09:33:58;9.00;99.90
17807;DHT22;9027;48.938;9.182;2023-04-03T09:35:33;9.10;99.90
17807;DHT22;9027;48.938;9.182;2023-04-03T09:37:05;9.30;99.90
17807;DHT22;9027;48.938;9.182;2023-04-03T09:38:37;9.40;99.90
17807;DHT22;9027;48.938;9.182;2023-04-03T09:40:37;9.50;99.90
17807;DHT22;9027;48.938;9.182;2023-04-03T09:42:18;9.60;99.90
17807;DHT22;9027;48.938;9.182;2023-04-03T09:43:53;9.70;99.90
17807;DHT22;9027;48.938;9.182;2023-04-03T09:45:26;9.70;99.90
17807;DHT22;9027;48.938;9.182;2023-04-03T09:46:59;9.90;99.90
17807;DHT22;9027;48.938;9.182;2023-04-03T09:48:52;9.90;99.90
17807;DHT22;9027;48.938;9.182;2023-04-03T09:50:28;10.30;99.90
17807;DHT22;9027;48.938;9.182;2023-04-03T09:52:18;10.40;99.90
17807;DHT22;9027;48.938;9.182;2023-04-03T09:53:50;10.20;99.90
17807;DHT22;9027;48.938;9.182;2023-04-03T09:55:24;10.10;99.90
17807;DHT22;9027;48.938;9.182;2023-04-03T09:57:04;10.20;99.90
17807;DHT22;9027;48.938;9.182;2023-04-03T09:58:39;10.20;99.90
17807;DHT22;9027;48.938;9.182;2023-04-03T10:00:23;10.00;99.90
17807;DHT22;9027;48.938;9.182;2023-04-03T10:01:59;9.80;99.90
17807;DHT22;9027;48.938;9.182;2023-04-03T10:03:34;9.70;99.90
17807;DHT22;9027;48.938;9.182;2023-04-03T10:05:26;9.80;99.90
17807;DHT22;9027;48.938;9.182;2023-04-03T10:06:59;9.80;99.90
17807;DHT22;9027;48.938;9.182;2023-04-03T10:08:33;9.80;99.90
17807;DHT22;9027;48.938;9.182;2023-04-03T10:10:17;9.70;99.90
17807;DHT22;9027;48.938;9.182;2023-04-03T10:12:02;9.70;99.90
17807;DHT22;9027;48.938;9.182;2023-04-03T10:13:42;9.40;99.90